createdAt,value
2023-01-20T00:01:22.348Z,101168.38
2023-01-20T00:03:48.983Z,101169.50
2023-01-20T00:06:15.482Z,101175.72
2023-01-20T00:08:42.335Z,101176.81
2023-01-20T00:11:12.204Z,101175.22
2023-01-20T00:13:39.463Z,101174.28
2023-01-20T00:16:08.047Z,101174.47
2023-01-20T00:18:35.143Z,101173.75
2023-01-20T00:21:05.919Z,101179.66
2023-01-20T00:23:32.708Z,101182.13
2023-01-20T00:25:59.444Z,101182.84
2023-01-20T00:28:26.047Z,101187.03
2023-01-20T00:30:52.478Z,101186.81
2023-01-20T00:33:18.963Z,101194.00
2023-01-20T00:35:45.387Z,101193.50
2023-01-20T00:38:11.851Z,101189.00
2023-01-20T00:40:38.269Z,101183.63
2023-01-20T00:43:04.662Z,101194.44
2023-01-20T00:45:31.078Z,101194.44
2023-01-20T00:47:57.518Z,101195.25
2023-01-20T00:50:23.979Z,101199.44
2023-01-20T00:52:50.391Z,101200.44
2023-01-20T00:55:16.817Z,101203.94
2023-01-20T00:57:43.245Z,101206.69
2023-01-20T01:00:10.260Z,101205.97
2023-01-20T01:02:40.111Z,101206.69
2023-01-20T01:05:06.838Z,101209.03
2023-01-20T01:07:33.320Z,101214.84
2023-01-20T01:09:59.732Z,101217.41
2023-01-20T01:12:26.332Z,101213.00
2023-01-20T01:14:52.766Z,101215.34
2023-01-20T01:17:19.440Z,101222.91
2023-01-20T01:19:45.868Z,101228.81
2023-01-20T01:22:12.293Z,101227.00
2023-01-20T01:24:38.897Z,101219.06
2023-01-20T01:27:05.377Z,101219.78
2023-01-20T01:29:31.804Z,101225.59
2023-01-20T01:31:58.227Z,101228.75
2023-01-20T01:34:24.736Z,101226.00
2023-01-20T01:36:51.194Z,101225.09
2023-01-20T01:39:17.647Z,101228.34
2023-01-20T01:41:44.056Z,101227.44
2023-01-20T01:44:12.772Z,101231.59
2023-01-20T01:46:41.335Z,101229.91
2023-01-20T01:49:20.071Z,101240.09
2023-01-20T01:52:08.942Z,101236.63
2023-01-20T01:54:39.877Z,101238.16
2023-01-20T01:57:07.849Z,101243.16
2023-01-20T01:59:35.086Z,101246.53
2023-01-20T02:02:01.783Z,101244.69
2023-01-20T02:04:28.463Z,101247.22
2023-01-20T02:07:09.281Z,101253.09
2023-01-20T02:09:36.151Z,101261.44
2023-01-20T02:12:06.370Z,101260.63
2023-01-20T02:14:42.607Z,101263.19
2023-01-20T02:17:18.329Z,101255.44
2023-01-20T02:20:17.676Z,101260.44
2023-01-20T02:22:56.181Z,101257.78
2023-01-20T02:25:28.547Z,101262.06
2023-01-20T02:28:28.864Z,101269.63
2023-01-20T02:31:07.480Z,101264.31
2023-01-20T02:33:36.828Z,101264.31
2023-01-20T02:36:19.511Z,101271.06
2023-01-20T02:39:01.144Z,101265.00
2023-01-20T02:41:41.806Z,101271.06
2023-01-20T02:44:16.419Z,101270.13
2023-01-20T02:47:21.974Z,101273.41
2023-01-20T02:50:13.059Z,101275.97
2023-01-20T02:52:47.615Z,101275.97
2023-01-20T02:55:22.265Z,101270.88
2023-01-20T02:57:55.813Z,101271.78
2023-01-20T03:00:31.664Z,101266.56
2023-01-20T03:03:01.905Z,101272.56
2023-01-20T03:05:35.027Z,101261.44
2023-01-20T03:08:06.450Z,101267.38
2023-01-20T03:10:35.495Z,101266.56
2023-01-20T03:13:21.260Z,101268.31
2023-01-20T03:16:01.335Z,101264.22
2023-01-20T03:18:33.809Z,101265.13
2023-01-20T03:21:02.435Z,101274.41
2023-01-20T03:23:33.310Z,101276.16
2023-01-20T03:26:02.981Z,101277.06
2023-01-20T03:28:29.416Z,101279.53
2023-01-20T03:30:57.461Z,101281.28
2023-01-20T03:33:24.731Z,101282.09
2023-01-20T03:35:52.261Z,101289.53
2023-01-20T03:38:18.784Z,101275.13
2023-01-20T03:41:29.840Z,101287.91
2023-01-20T03:44:11.463Z,101287.81
2023-01-20T03:47:31.534Z,101284.44
2023-01-20T03:50:10.040Z,101280.13
2023-01-20T03:52:47.483Z,101286.19
2023-01-20T03:55:26.456Z,101293.94
2023-01-20T03:58:04.612Z,101290.34
2023-01-20T04:00:37.869Z,101284.53
2023-01-20T04:03:08.782Z,101283.63
2023-01-20T04:05:37.431Z,101287.19
2023-01-20T04:08:08.710Z,101296.59
2023-01-20T04:10:38.720Z,101290.66
2023-01-20T04:13:05.395Z,101289.84
2023-01-20T04:15:42.055Z,101302.63
2023-01-20T04:18:16.903Z,101302.63
2023-01-20T04:20:46.502Z,101309.47
2023-01-20T04:23:20.140Z,101305.97
2023-01-20T04:25:46.847Z,101310.19
2023-01-20T04:28:13.242Z,101300.88
2023-01-20T04:30:39.690Z,101313.53
2023-01-20T04:33:06.248Z,101304.06
2023-01-20T04:35:32.660Z,101308.34
2023-01-20T04:37:59.202Z,101310.06
2023-01-20T04:40:25.664Z,101302.50
2023-01-20T04:42:52.105Z,101304.25
2023-01-20T04:45:18.728Z,101294.94
2023-01-20T04:47:45.120Z,101300.25
2023-01-20T04:50:13.819Z,101303.63
2023-01-20T04:52:40.398Z,101304.66
2023-01-20T04:55:07.307Z,101304.75
2023-01-20T04:57:33.752Z,101309.06
2023-01-20T05:00:00.200Z,101312.50
2023-01-20T05:02:27.017Z,101311.72
2023-01-20T05:04:53.485Z,101321.91
2023-01-20T05:07:19.885Z,101315.88
2023-01-20T05:09:46.289Z,101314.16
2023-01-20T05:12:12.817Z,101312.50
2023-01-20T05:14:39.215Z,101312.72
2023-01-20T05:17:05.663Z,101309.34
2023-01-20T05:19:32.088Z,101314.47
2023-01-20T05:21:59.864Z,101318.72
2023-01-20T05:24:26.305Z,101315.25
2023-01-20T05:26:52.762Z,101323.03
2023-01-20T05:29:19.278Z,101319.66
2023-01-20T05:31:45.719Z,101322.22
2023-01-20T05:34:12.248Z,101309.44
2023-01-20T05:36:38.809Z,101316.16
2023-01-20T05:39:05.284Z,101320.28
2023-01-20T05:41:32.387Z,101319.47
2023-01-20T05:43:58.827Z,101326.19
2023-01-20T05:46:25.325Z,101329.47
2023-01-20T05:48:51.772Z,101321.81
2023-01-20T05:51:18.182Z,101318.44
2023-01-20T05:53:44.784Z,101310.88
2023-01-20T05:56:15.691Z,101319.25
2023-01-20T05:58:42.429Z,101328.66
2023-01-20T06:01:11.857Z,101333.75
2023-01-20T06:03:38.418Z,101337.13
2023-01-20T06:06:07.872Z,101339.59
2023-01-20T06:08:35.258Z,101340.31
2023-01-20T06:11:19.745Z,101342.75
2023-01-20T06:13:49.366Z,101351.22
2023-01-20T06:16:20.029Z,101351.94
2023-01-20T06:18:46.573Z,101354.41
2023-01-20T06:21:12.994Z,101363.81
2023-01-20T06:23:39.745Z,101366.25
2023-01-20T06:26:12.608Z,101361.97
2023-01-20T06:28:39.246Z,101359.41
2023-01-20T06:31:12.016Z,101365.34
2023-01-20T06:33:38.573Z,101362.91
2023-01-20T06:36:06.171Z,101369.72
2023-01-20T06:38:34.935Z,101361.34
2023-01-20T06:41:03.868Z,101345.13
2023-01-20T06:43:31.408Z,101342.75
2023-01-20T06:46:02.961Z,101335.09
2023-01-20T06:48:30.095Z,101327.63
2023-01-20T06:51:07.966Z,101337.03
2023-01-20T06:53:35.036Z,101336.22
2023-01-20T06:56:04.578Z,101339.69
2023-01-20T06:58:32.961Z,101341.31
2023-01-20T07:01:15.773Z,101343.97
2023-01-20T07:03:45.735Z,101344.69
2023-01-20T07:06:25.861Z,101353.16
2023-01-20T07:08:52.730Z,101355.63
2023-01-20T07:11:19.898Z,101350.53
2023-01-20T07:14:10.250Z,101350.63
2023-01-20T07:16:37.248Z,101345.50
2023-01-20T07:19:04.226Z,101360.94
2023-01-20T07:21:30.838Z,101357.56
2023-01-20T07:24:01.326Z,101359.19
2023-01-20T07:26:27.976Z,101362.59
2023-01-20T07:28:54.459Z,101371.16
2023-01-20T07:31:26.698Z,101372.88
2023-01-20T07:33:57.523Z,101372.78
2023-01-20T07:36:26.378Z,101370.25
2023-01-20T07:38:53.755Z,101373.59
2023-01-20T07:41:21.404Z,101377.81
2023-01-20T07:43:49.929Z,101370.94
2023-01-20T07:46:16.821Z,101371.84
2023-01-20T07:48:43.609Z,101374.41
2023-01-20T07:51:12.847Z,101379.50
2023-01-20T07:53:47.954Z,101380.34
2023-01-20T07:56:20.309Z,101388.00
2023-01-20T07:58:50.328Z,101393.00
2023-01-20T08:01:22.525Z,101389.63
2023-01-20T08:03:49.719Z,101398.09
2023-01-20T08:06:19.185Z,101394.66
2023-01-20T08:08:46.034Z,101397.09
2023-01-20T08:11:14.193Z,101401.22
2023-01-20T08:13:41.079Z,101397.72
2023-01-20T08:16:10.364Z,101406.94
2023-01-20T08:18:36.978Z,101395.81
2023-01-20T08:21:08.261Z,101402.53
2023-01-20T08:23:35.883Z,101404.09
2023-01-20T08:26:05.424Z,101415.09
2023-01-20T08:28:35.421Z,101415.81
2023-01-20T08:31:13.211Z,101418.28
2023-01-20T08:33:42.158Z,101420.72
2023-01-20T08:36:17.302Z,101429.25
2023-01-20T08:38:44.749Z,101428.09
2023-01-20T08:41:15.668Z,101426.34
2023-01-20T08:43:42.292Z,101425.47
2023-01-20T08:46:11.925Z,101437.22
2023-01-20T08:48:39.739Z,101432.13
2023-01-20T08:51:08.660Z,101437.84
2023-01-20T08:53:35.741Z,101448.78
2023-01-20T08:56:03.276Z,101449.56
2023-01-20T08:58:30.331Z,101463.19
2023-01-20T09:00:56.827Z,101458.91
2023-01-20T09:03:23.957Z,101467.28
2023-01-20T09:05:50.822Z,101462.16
2023-01-20T09:08:20.021Z,101456.84
2023-01-20T09:10:46.700Z,101463.63
2023-01-20T09:13:13.103Z,101459.41
2023-01-20T09:15:39.530Z,101467.06
2023-01-20T09:18:06.106Z,101464.41
2023-01-20T09:20:32.519Z,101472.00
2023-01-20T09:23:03.018Z,101473.63
2023-01-20T09:25:29.641Z,101465.97
2023-01-20T09:27:56.054Z,101474.34
2023-01-20T09:30:22.441Z,101481.09
2023-01-20T09:32:53.038Z,101488.88
2023-01-20T09:35:19.654Z,101492.25
2023-01-20T09:38:04.799Z,101493.78
2023-01-20T09:41:02.081Z,101491.94
2023-01-20T09:43:54.150Z,101495.41
2023-01-20T09:47:11.093Z,101497.06
2023-01-20T09:50:14.659Z,101499.81
2023-01-20T09:53:00.438Z,101503.19
2023-01-20T09:55:26.759Z,101504.63
2023-01-20T09:58:08.246Z,101509.84
2023-01-20T10:00:36.860Z,101514.13
2023-01-20T10:03:22.347Z,101512.41
2023-01-20T10:05:53.404Z,101514.03
2023-01-20T10:08:32.342Z,101523.31
2023-01-20T10:11:05.583Z,101525.78
2023-01-20T10:13:51.573Z,101526.59
2023-01-20T10:16:45.837Z,101528.06
2023-01-20T10:19:29.659Z,101527.25
2023-01-20T10:22:07.100Z,101525.59
2023-01-20T10:24:47.340Z,101526.31
2023-01-20T10:27:13.732Z,101527.97
2023-01-20T10:29:56.784Z,101537.03
2023-01-20T10:32:36.412Z,101531.84
2023-01-20T10:35:15.504Z,101536.66
2023-01-20T10:37:42.653Z,101537.16
2023-01-20T10:40:27.719Z,101541.19
2023-01-20T10:42:59.578Z,101540.19
2023-01-20T10:45:42.755Z,101536.16
2023-01-20T10:48:37.583Z,101540.56
2023-01-20T10:51:25.920Z,101536.56
2023-01-20T10:54:01.550Z,101536.56
2023-01-20T10:56:41.763Z,101532.59
2023-01-20T10:59:13.769Z,101530.94
2023-01-20T11:01:41.414Z,101531.94
2023-01-20T11:04:19.432Z,101531.94
2023-01-20T11:06:54.505Z,101527.84
2023-01-20T11:09:29.571Z,101527.06
2023-01-20T11:11:58.265Z,101515.97
2023-01-20T11:14:26.146Z,101527.16
2023-01-20T11:17:04.447Z,101523.75
2023-01-20T11:19:46.973Z,101517.03
2023-01-20T11:22:20.604Z,101507.69
2023-01-20T11:24:47.378Z,101509.44
2023-01-20T11:27:21.358Z,101513.53
2023-01-20T11:30:04.339Z,101507.59
2023-01-20T11:32:37.245Z,101505.56
2023-01-20T11:35:21.697Z,101500.88
2023-01-20T11:37:48.469Z,101500.28
2023-01-20T11:40:25.146Z,101500.47
2023-01-20T11:42:53.355Z,101499.03
2023-01-20T11:45:30.223Z,101512.97
2023-01-20T11:48:16.471Z,101516.53
2023-01-20T11:50:57.435Z,101514.78
2023-01-20T11:53:26.518Z,101531.19
2023-01-20T11:55:59.348Z,101527.16
2023-01-20T11:58:47.559Z,101537.69
2023-01-20T12:01:25.824Z,101540.16
2023-01-20T12:04:21.862Z,101543.19
2023-01-20T12:07:09.280Z,101540.72
2023-01-20T12:09:40.104Z,101546.53
2023-01-20T12:12:09.860Z,101542.53
2023-01-20T12:14:47.175Z,101544.78
2023-01-20T12:17:32.399Z,101545.44
2023-01-20T12:20:05.494Z,101544.47
2023-01-20T12:22:41.143Z,101547.75
2023-01-20T12:25:19.873Z,101551.66
2023-01-20T12:28:01.296Z,101555.03
2023-01-20T12:30:37.850Z,101552.47
2023-01-20T12:33:05.251Z,101555.75
2023-01-20T12:35:46.187Z,101552.47
2023-01-20T12:38:19.632Z,101559.34
2023-01-20T12:40:52.604Z,101556.06
2023-01-20T12:43:43.745Z,101559.44
2023-01-20T12:46:32.245Z,101553.06
2023-01-20T12:49:29.082Z,101549.59
2023-01-20T12:52:09.368Z,101554.53
2023-01-20T12:54:53.337Z,101560.03
2023-01-20T12:57:41.444Z,101562.59
2023-01-20T13:00:29.526Z,101557.91
2023-01-20T13:03:14.517Z,101561.50
2023-01-20T13:06:01.353Z,101565.56
2023-01-20T13:09:05.884Z,101566.72
2023-01-20T13:11:56.969Z,101573.03
2023-01-20T13:17:43.497Z,101570.59
2023-01-20T13:20:30.938Z,101582.47
2023-01-20T13:23:04.201Z,101584.84
2023-01-20T13:25:32.319Z,101577.34
2023-01-20T13:27:59.222Z,101581.75
2023-01-20T13:30:47.811Z,101590.34
2023-01-20T13:33:33.491Z,101603.44
2023-01-20T13:36:02.014Z,101605.19
2023-01-20T13:38:33.039Z,101606.09
2023-01-20T13:41:03.484Z,101610.59
2023-01-20T13:43:32.808Z,101609.91
2023-01-20T13:46:05.790Z,101616.72
2023-01-20T13:48:34.246Z,101614.50
2023-01-20T13:51:26.965Z,101618.06
2023-01-20T13:53:53.562Z,101631.56
2023-01-20T13:56:33.666Z,101629.00
2023-01-20T13:59:00.240Z,101625.63
2023-01-20T14:01:27.897Z,101629.94
2023-01-20T14:04:03.737Z,101637.63
2023-01-20T14:06:33.038Z,101640.19
2023-01-20T14:09:01.403Z,101649.47
2023-01-20T14:11:29.662Z,101653.88
2023-01-20T14:14:07.545Z,101650.41
2023-01-20T14:16:41.199Z,101656.34
2023-01-20T14:19:19.932Z,101661.53
2023-01-20T14:21:53.128Z,101671.78
2023-01-20T14:24:43.757Z,101679.56
2023-01-20T14:27:28.286Z,101682.22
2023-01-20T14:29:56.840Z,101685.66
2023-01-20T14:32:35.197Z,101683.22
2023-01-20T14:35:04.294Z,101695.28
2023-01-20T14:37:38.916Z,101697.94
2023-01-20T14:40:32.452Z,101705.50
2023-01-20T14:43:07.836Z,101706.97
2023-01-20T14:45:36.827Z,101718.63
2023-01-20T14:48:05.220Z,101723.66
2023-01-20T14:50:31.746Z,101728.69
2023-01-20T14:52:58.180Z,101732.97
2023-01-20T14:55:35.896Z,101738.91
2023-01-20T14:58:18.708Z,101747.31
2023-01-20T15:00:49.921Z,101754.06
2023-01-20T15:03:21.841Z,101757.44
2023-01-20T15:05:59.145Z,101763.31
2023-01-20T15:08:34.691Z,101769.22
2023-01-20T15:11:21.650Z,101772.59
2023-01-20T15:13:51.104Z,101784.50
2023-01-20T15:16:36.995Z,101795.44
2023-01-20T15:19:15.592Z,101795.44
2023-01-20T15:21:45.925Z,101801.28
2023-01-20T15:24:15.128Z,101808.75
2023-01-20T15:26:42.085Z,101819.75
2023-01-20T15:29:21.913Z,101824.88
2023-01-20T15:31:49.194Z,101828.34
2023-01-20T15:34:15.734Z,101846.16
2023-01-20T15:36:43.983Z,101840.03
2023-01-20T15:39:18.991Z,101848.53
2023-01-20T15:41:46.549Z,101859.56
2023-01-20T15:44:12.927Z,101859.56
2023-01-20T15:46:40.453Z,101869.81
2023-01-20T15:49:11.676Z,101871.56
2023-01-20T15:51:38.719Z,101876.66
2023-01-20T15:54:07.368Z,101886.81
2023-01-20T15:56:35.227Z,101888.25
2023-01-20T15:59:02.190Z,101902.81
2023-01-20T16:01:29.504Z,101909.47
2023-01-20T16:03:57.443Z,101924.94
2023-01-20T16:06:30.411Z,101922.28
2023-01-20T16:08:57.819Z,101931.69
2023-01-20T16:11:24.284Z,101938.44
2023-01-20T16:13:50.683Z,101946.84
2023-01-20T16:16:19.325Z,101942.53
2023-01-20T16:18:46.296Z,101961.13
2023-01-20T16:21:15.211Z,101966.34
2023-01-20T16:23:42.141Z,101968.03
2023-01-20T16:26:23.516Z,101977.47
2023-01-20T16:28:51.648Z,101977.56
2023-01-20T16:31:19.174Z,101984.44
2023-01-20T16:33:45.945Z,101982.78
2023-01-20T16:36:15.016Z,101986.81
2023-01-20T16:38:42.417Z,102005.44
2023-01-20T16:41:21.672Z,102001.16
2023-01-20T16:43:48.808Z,102008.09
2023-01-20T16:46:17.686Z,102007.28
2023-01-20T16:48:44.144Z,102017.53
2023-01-20T16:51:16.788Z,102022.75
2023-01-20T16:53:43.270Z,102030.41
2023-01-20T16:56:19.605Z,102032.13
2023-01-20T16:58:51.613Z,102044.28
2023-01-20T17:01:23.438Z,102047.78
2023-01-20T17:03:52.252Z,102056.38
2023-01-20T17:06:21.244Z,102066.44
2023-01-20T17:08:49.677Z,102058.28
2023-01-20T17:11:28.128Z,102066.25
2023-01-20T17:13:55.608Z,102074.00
2023-01-20T17:16:22.991Z,102082.66
2023-01-20T17:18:50.897Z,102081.38
2023-01-20T17:21:19.367Z,102094.44
2023-01-20T17:23:50.271Z,102103.13
2023-01-20T17:26:16.784Z,102111.97
2023-01-20T17:28:46.580Z,102115.50
2023-01-20T17:31:13.890Z,102120.72
2023-01-20T17:33:46.205Z,102126.28
2023-01-20T17:36:13.072Z,102143.88
2023-01-20T17:38:42.321Z,102136.38
2023-01-20T17:41:10.177Z,102147.81
2023-01-20T17:43:38.926Z,102151.41
2023-01-20T17:46:29.560Z,102156.34
2023-01-20T17:48:56.948Z,102174.22
2023-01-20T17:51:25.443Z,102183.03
2023-01-20T17:53:51.937Z,102178.59
2023-01-20T17:56:20.354Z,102191.91
2023-01-20T17:58:47.427Z,102193.72
2023-01-20T18:01:21.078Z,102198.81
2023-01-20T18:03:49.666Z,102209.28
2023-01-20T18:06:19.273Z,102209.50
2023-01-20T18:08:52.433Z,102214.69
2023-01-20T18:11:21.536Z,102220.88
2023-01-20T18:13:50.222Z,102223.44
2023-01-20T18:16:18.866Z,102232.97
2023-01-20T18:18:47.116Z,102235.75
2023-01-20T18:21:13.524Z,102247.75
2023-01-20T18:23:41.144Z,102243.50
2023-01-20T18:26:09.610Z,102248.00
2023-01-20T18:28:36.800Z,102256.63
2023-01-20T18:31:09.745Z,102259.19
2023-01-20T18:33:43.980Z,102258.50
2023-01-20T18:36:14.781Z,102271.56
2023-01-20T18:38:44.919Z,102281.09
2023-01-20T18:41:13.136Z,102282.88
2023-01-20T18:43:40.446Z,102282.97
2023-01-20T18:46:08.589Z,102290.78
2023-01-20T18:48:39.646Z,102301.59
2023-01-20T18:51:07.620Z,102311.94
2023-01-20T18:53:34.158Z,102318.63
2023-01-20T18:56:08.740Z,102327.06
2023-01-20T18:58:37.384Z,102325.59
2023-01-20T19:01:12.141Z,102341.97
2023-01-20T19:03:39.740Z,102344.59
2023-01-20T19:06:21.686Z,102345.50
2023-01-20T19:08:48.687Z,102355.09
2023-01-20T19:11:20.763Z,102366.44
2023-01-20T19:13:51.142Z,102360.59
2023-01-20T19:16:19.115Z,102370.00
2023-01-20T19:18:51.698Z,102370.94
2023-01-20T19:21:18.319Z,102381.34
2023-01-20T19:23:51.838Z,102383.91
2023-01-20T19:26:26.172Z,102393.50
2023-01-20T19:29:02.305Z,102395.97
2023-01-20T19:31:34.984Z,102402.81
2023-01-20T19:34:01.793Z,102405.56
2023-01-20T19:36:28.231Z,102409.00
2023-01-20T19:38:54.987Z,102414.22
2023-01-20T19:41:25.594Z,102420.44
2023-01-20T19:43:57.417Z,102423.06
2023-01-20T19:46:26.634Z,102425.06
2023-01-20T19:48:54.495Z,102426.91
2023-01-20T19:51:21.104Z,102429.59
2023-01-20T19:53:50.117Z,102436.41
2023-01-20T19:56:19.315Z,102443.09
2023-01-20T19:58:47.227Z,102442.34
2023-01-20T20:01:22.605Z,102447.63
2023-01-20T20:03:51.804Z,102453.50
2023-01-20T20:06:23.188Z,102457.22
2023-01-20T20:08:50.603Z,102464.06
2023-01-20T20:11:17.115Z,102465.09
2023-01-20T20:13:43.539Z,102472.88
2023-01-20T20:16:10.235Z,102481.22
2023-01-20T20:18:36.659Z,102482.25
2023-01-20T20:21:04.754Z,102490.09
2023-01-20T20:23:31.149Z,102490.28
2023-01-20T20:25:57.642Z,102495.50
2023-01-20T20:28:25.283Z,102502.25
2023-01-20T20:30:52.834Z,102497.91
2023-01-20T20:33:19.723Z,102503.13
2023-01-20T20:35:46.341Z,102504.16
2023-01-20T20:38:12.741Z,102513.69
2023-01-20T20:40:39.226Z,102521.53
2023-01-20T20:43:05.604Z,102517.09
2023-01-20T20:45:32.136Z,102531.59
2023-01-20T20:47:58.545Z,102524.91
2023-01-20T20:50:25.282Z,102532.56
2023-01-20T20:52:52.607Z,102546.06
2023-01-20T20:55:19.215Z,102543.44
2023-01-20T20:57:45.666Z,102544.53
2023-01-20T21:00:12.630Z,102564.13
2023-01-20T21:02:39.723Z,102560.09
2023-01-20T21:05:07.616Z,102567.91
2023-01-20T21:07:34.296Z,102570.59
2023-01-20T21:10:00.893Z,102571.53
2023-01-20T21:12:27.334Z,102583.44
2023-01-20T21:14:53.699Z,102582.78
2023-01-20T21:17:20.108Z,102587.59
2023-01-20T21:19:52.124Z,102595.06
2023-01-20T21:22:19.821Z,102597.56
2023-01-20T21:24:46.176Z,102612.91
2023-01-20T21:27:13.276Z,102612.59
2023-01-20T21:29:39.644Z,102615.19
2023-01-20T21:32:06.078Z,102614.09
2023-01-20T21:34:32.481Z,102618.16
2023-01-20T21:36:59.573Z,102623.31
2023-01-20T21:39:25.967Z,102626.84
2023-01-20T21:41:52.332Z,102625.88
2023-01-20T21:44:32.985Z,102641.22
2023-01-20T21:47:04.825Z,102646.41
2023-01-20T21:49:50.132Z,102654.81
2023-01-20T21:52:37.864Z,102647.28
2023-01-20T21:55:05.159Z,102646.25
2023-01-20T21:57:32.662Z,102648.16
2023-01-20T21:59:59.926Z,102643.91
2023-01-20T22:02:29.689Z,102645.50
2023-01-20T22:04:56.364Z,102656.66
2023-01-20T22:07:23.305Z,102655.91
2023-01-20T22:09:49.868Z,102667.00
2023-01-20T22:12:16.437Z,102677.16
2023-01-20T22:14:43.019Z,102680.41
2023-01-20T22:17:10.871Z,102692.06
2023-01-20T22:19:37.866Z,102693.75
2023-01-20T22:22:05.006Z,102694.06
2023-01-20T22:24:31.639Z,102696.56
2023-01-20T22:26:58.303Z,102703.34
2023-01-20T22:29:25.205Z,102707.34
2023-01-20T22:31:53.249Z,102720.00
2023-01-20T22:34:20.261Z,102731.81
2023-01-20T22:36:46.912Z,102734.97
2023-01-20T22:39:14.482Z,102739.25
2023-01-20T22:41:41.013Z,102746.03
2023-01-20T22:44:08.105Z,102745.25
2023-01-20T22:46:34.487Z,102756.28
2023-01-20T22:49:00.925Z,102756.97
2023-01-20T22:51:29.714Z,102753.63
2023-01-20T22:53:58.126Z,102759.63
2023-01-20T22:56:27.853Z,102757.03
2023-01-20T22:58:56.519Z,102760.44
2023-01-20T23:01:25.749Z,102766.38
2023-01-20T23:03:57.046Z,102770.66
2023-01-20T23:06:24.444Z,102771.25
2023-01-20T23:08:50.862Z,102774.91
2023-01-20T23:11:18.974Z,102781.00
2023-01-20T23:13:46.705Z,102783.59
2023-01-20T23:16:17.457Z,102779.47
2023-01-20T23:18:45.619Z,102791.47
2023-01-20T23:21:12.473Z,102787.16
2023-01-20T23:23:39.273Z,102798.06
2023-01-20T23:26:12.103Z,102798.19
2023-01-20T23:28:38.552Z,102809.84
2023-01-20T23:31:07.378Z,102813.25
2023-01-20T23:33:34.448Z,102822.50
2023-01-20T23:36:08.616Z,102816.63
2023-01-20T23:38:35.085Z,102826.06
2023-01-20T23:41:03.151Z,102814.09
2023-01-20T23:43:30.789Z,102814.97
2023-01-20T23:46:02.233Z,102818.50
2023-01-20T23:48:29.421Z,102821.84
2023-01-20T23:50:59.606Z,102827.09
2023-01-20T23:53:27.307Z,102827.47
2023-01-20T23:56:01.639Z,102832.53
2023-01-20T23:58:28.434Z,102832.56
